Time;durP1;ratioP1;P1;durP2;ratioP2;P2;SDS_P1;SDS_P2;PMS_P1;PMS_P2;Temp;Humidity;BMP_temperature;BMP_pressure;BME280_temperature;BME280_humidity;BME280_pressure;Samples;Min_cycle;Max_cycle;Signal;HPM_P1;HPM_P2
2022/06/08 00:00:47;;;;;;;5.78;4.93;;;10.20;99.90;;;;;;5038878;28;20050;-73
2022/06/08 00:03:23;;;;;;;7.18;5.10;;;10.20;99.90;;;;;;5055281;28;20053;-74
2022/06/08 00:05:48;;;;;;;7.60;5.28;;;10.20;99.90;;;;;;5055181;28;20037;-73
2022/06/08 00:08:14;;;;;;;7.35;5.53;;;10.20;99.90;;;;;;5055165;28;20040;-73
2022/06/08 00:10:40;;;;;;;6.35;5.70;;;10.10;99.90;;;;;;5055174;28;20119;-72
2022/06/08 00:13:06;;;;;;;6.82;5.70;;;10.10;99.90;;;;;;5055057;28;20548;-73
2022/06/08 00:15:33;;;;;;;7.25;4.90;;;10.10;99.90;;;;;;5055069;28;20036;-73
2022/06/08 00:17:59;;;;;;;5.95;5.05;;;10.10;99.90;;;;;;5038375;28;20119;-73
2022/06/08 00:20:25;;;;;;;7.55;5.40;;;10.10;99.90;;;;;;5053749;28;20441;-74
2022/06/08 00:22:50;;;;;;;7.20;6.00;;;10.10;99.90;;;;;;5054640;28;20455;-73
2022/06/08 00:25:17;;;;;;;7.25;6.25;;;10.10;99.90;;;;;;5038088;28;20051;-72
2022/06/08 00:27:42;;;;;;;7.38;5.63;;;10.10;99.90;;;;;;5055313;28;20045;-73
2022/06/08 00:30:09;;;;;;;7.85;6.00;;;10.10;99.90;;;;;;5054966;28;20508;-73
2022/06/08 00:32:35;;;;;;;7.80;6.10;;;10.10;99.90;;;;;;5038180;28;20036;-73
2022/06/08 00:35:02;;;;;;;7.32;5.80;;;10.10;99.90;;;;;;5054871;28;20059;-73
2022/06/08 00:37:28;;;;;;;6.07;5.53;;;10.00;99.90;;;;;;5054773;28;20101;-73
2022/06/08 00:39:54;;;;;;;8.25;6.03;;;10.00;99.90;;;;;;5037666;28;20036;-73
2022/06/08 00:42:20;;;;;;;10.60;6.53;;;10.00;99.90;;;;;;5054573;28;20444;-74
2022/06/08 00:44:51;;;;;;;9.05;5.78;;;10.00;99.90;;;;;;5054545;28;20040;-73
2022/06/08 00:47:25;;;;;;;6.38;5.70;;;9.90;99.90;;;;;;5054640;28;20063;-74
2022/06/08 00:49:56;;;;;;;6.80;6.00;;;9.90;99.90;;;;;;5054427;28;20045;-73
2022/06/08 00:52:22;;;;;;;6.93;5.53;;;9.90;99.90;;;;;;5071299;28;20446;-74
2022/06/08 00:54:57;;;;;;;7.28;6.15;;;9.90;99.90;;;;;;5054640;28;20051;-74
2022/06/08 00:57:33;;;;;;;6.60;5.60;;;9.90;99.90;;;;;;5054363;28;20048;-74
2022/06/08 01:00:08;;;;;;;6.75;6.15;;;9.90;99.90;;;;;;5054103;28;20041;-74
2022/06/08 01:02:34;;;;;;;8.18;6.63;;;9.90;99.90;;;;;;5054155;28;20072;-74
2022/06/08 01:05:44;;;;;;;7.13;6.00;;;9.90;99.90;;;;;;5037798;28;20079;-73
2022/06/08 01:08:32;;;;;;;6.40;5.75;;;9.80;99.90;;;;;;5054234;28;20121;-73
2022/06/08 01:11:01;;;;;;;6.80;6.10;;;9.80;99.90;;;;;;5041121;28;20088;-74
2022/06/08 01:13:29;;;;;;;6.65;6.03;;;9.70;99.90;;;;;;5054149;28;20441;-73
2022/06/08 01:15:55;;;;;;;5.97;5.38;;;9.70;99.90;;;;;;5053750;28;20040;-72
2022/06/08 01:18:21;;;;;;;6.68;5.45;;;9.70;99.90;;;;;;5053816;28;20097;-74
2022/06/08 01:20:54;;;;;;;6.03;5.38;;;9.70;99.90;;;;;;5037030;28;20033;-73
2022/06/08 01:23:21;;;;;;;7.03;6.32;;;9.70;99.90;;;;;;5053937;28;20048;-73
2022/06/08 01:26:10;;;;;;;6.55;5.65;;;9.70;99.90;;;;;;5053621;28;20052;-73
2022/06/08 01:28:54;;;;;;;6.60;5.68;;;9.70;99.90;;;;;;5053957;28;20446;-72
2022/06/08 01:31:37;;;;;;;7.53;6.10;;;9.60;99.90;;;;;;5071497;28;20082;-73
2022/06/08 01:34:35;;;;;;;6.68;6.07;;;9.70;99.90;;;;;;5070398;28;20044;-73
2022/06/08 01:37:24;;;;;;;9.10;6.03;;;9.70;99.90;;;;;;5053356;28;20041;-73
2022/06/08 01:40:10;;;;;;;6.80;6.10;;;9.60;99.90;;;;;;5053702;28;20477;-73
2022/06/08 01:43:09;;;;;;;7.97;6.00;;;9.60;99.90;;;;;;5013120;28;20083;-74
2022/06/08 01:45:46;;;;;;;7.70;5.88;;;9.60;99.90;;;;;;5036854;28;20048;-73
2022/06/08 01:48:33;;;;;;;7.53;6.50;;;9.60;99.90;;;;;;5053579;28;20040;-73
2022/06/08 01:51:17;;;;;;;6.65;6.00;;;9.60;99.90;;;;;;5053198;28;20112;-73
2022/06/08 01:54:14;;;;;;;7.47;6.20;;;9.60;99.90;;;;;;5053139;28;20032;-73
2022/06/08 01:56:50;;;;;;;7.10;6.40;;;9.60;99.90;;;;;;5053157;28;20043;-73
2022/06/08 01:59:23;;;;;;;7.10;6.43;;;9.60;99.90;;;;;;5052987;28;20055;-73
2022/06/08 02:01:53;;;;;;;7.75;6.45;;;9.60;99.90;;;;;;5052964;28;20075;-74
2022/06/08 02:04:25;;;;;;;7.15;6.10;;;9.60;99.90;;;;;;5053254;28;20040;-73
2022/06/08 02:06:51;;;;;;;8.88;6.65;;;9.60;99.90;;;;;;5053107;28;20119;-73
2022/06/08 02:09:29;;;;;;;7.50;6.60;;;9.60;99.90;;;;;;5053092;28;20127;-73
2022/06/08 02:12:05;;;;;;;7.78;6.22;;;9.60;99.90;;;;;;5053338;28;20378;-73
2022/06/08 02:14:43;;;;;;;7.25;6.45;;;9.50;99.90;;;;;;5052908;28;20040;-74
2022/06/08 02:17:24;;;;;;;8.23;6.43;;;9.50;99.90;;;;;;5052686;28;20314;-74
2022/06/08 02:20:05;;;;;;;7.37;6.30;;;9.50;99.90;;;;;;5052812;28;20574;-74
2022/06/08 02:22:46;;;;;;;8.95;6.38;;;9.50;99.90;;;;;;5052679;28;20052;-73
2022/06/08 02:25:17;;;;;;;8.23;6.57;;;9.50;99.90;;;;;;5052617;28;20520;-74
2022/06/08 02:28:04;;;;;;;6.53;5.78;;;9.50;99.90;;;;;;5052758;28;20357;-73
2022/06/08 02:30:37;;;;;;;7.32;6.45;;;9.40;99.90;;;;;;5052635;28;20127;-74
2022/06/08 02:35:59;;;;;;;5.78;5.28;;;9.40;99.90;;;;;;5052627;28;20052;-73
2022/06/08 02:38:32;;;;;;;6.03;5.35;;;9.40;99.90;;;;;;5052201;28;20044;-73
2022/06/08 02:41:01;;;;;;;7.00;6.25;;;9.40;99.90;;;;;;5052711;28;20050;-73
2022/06/08 02:43:31;;;;;;;6.95;6.25;;;9.40;99.90;;;;;;5051990;28;20044;-74
2022/06/08 02:46:08;;;;;;;7.25;6.55;;;9.40;99.90;;;;;;5052338;28;20549;-73
2022/06/08 02:48:34;;;;;;;10.05;7.38;;;9.40;99.90;;;;;;5052196;28;20044;-74
2022/06/08 02:51:00;;;;;;;7.57;6.82;;;9.40;99.90;;;;;;5035758;28;20029;-74
2022/06/08 02:53:29;;;;;;;9.80;8.52;;;9.40;99.90;;;;;;5052115;28;20036;-74
2022/06/08 02:56:38;;;;;;;13.30;6.95;;;9.40;99.90;;;;;;5052260;28;20068;-74
2022/06/08 02:59:22;;;;;;;9.80;7.70;;;9.40;99.90;;;;;;5048002;28;20057;-74
2022/06/08 03:02:19;;;;;;;9.38;7.75;;;9.40;99.90;;;;;;5035763;28;20028;-74
2022/06/08 03:05:04;;;;;;;10.27;8.27;;;9.40;99.90;;;;;;5052095;28;20044;-74
2022/06/08 03:07:36;;;;;;;9.05;7.72;;;9.40;99.90;;;;;;5052039;28;20758;-74
2022/06/08 03:10:08;;;;;;;9.88;8.18;;;9.40;99.90;;;;;;5068758;28;20052;-74
2022/06/08 03:12:40;;;;;;;11.48;8.43;;;9.40;99.90;;;;;;5052063;28;20049;-74
2022/06/08 03:15:09;;;;;;;10.00;8.85;;;9.40;99.90;;;;;;5035610;28;20045;-74
2022/06/08 03:17:37;;;;;;;9.48;8.18;;;9.40;99.90;;;;;;5035048;28;20135;-74
2022/06/08 03:20:05;;;;;;;13.55;8.13;;;9.40;99.90;;;;;;5034975;28;20114;-73
2022/06/08 03:22:31;;;;;;;9.93;8.23;;;9.40;99.90;;;;;;5051611;28;20044;-73
2022/06/08 03:24:57;;;;;;;11.50;8.40;;;9.40;99.90;;;;;;5051760;28;20052;-73
2022/06/08 03:27:23;;;;;;;11.27;8.82;;;9.40;99.90;;;;;;5051953;28;20510;-73
2022/06/08 03:29:49;;;;;;;9.35;8.38;;;9.40;99.90;;;;;;5051745;28;20051;-73
2022/06/08 03:32:14;;;;;;;8.95;7.90;;;9.40;99.90;;;;;;5051779;28;20037;-73
2022/06/08 03:34:40;;;;;;;10.10;9.02;;;9.40;99.90;;;;;;5051956;28;20436;-73
2022/06/08 03:37:07;;;;;;;10.48;9.40;;;9.40;99.90;;;;;;5051810;28;20101;-73
2022/06/08 03:39:33;;;;;;;9.88;8.48;;;9.40;99.90;;;;;;5051714;28;20546;-73
2022/06/08 03:41:59;;;;;;;10.18;8.95;;;9.40;99.90;;;;;;5051928;28;20379;-73
2022/06/08 03:44:24;;;;;;;11.45;9.32;;;9.50;99.90;;;;;;5051950;28;20097;-74
2022/06/08 03:46:55;;;;;;;12.20;9.20;;;9.50;99.90;;;;;;5051730;28;20040;-74
2022/06/08 03:49:22;;;;;;;12.73;10.85;;;9.60;99.90;;;;;;5051757;28;20572;-74
2022/06/08 03:51:50;;;;;;;12.27;10.10;;;9.60;99.90;;;;;;5051939;28;20481;-74
2022/06/08 03:54:19;;;;;;;11.02;9.23;;;9.60;99.90;;;;;;5051717;28;20047;-74
2022/06/08 03:56:49;;;;;;;14.18;11.80;;;9.60;99.90;;;;;;5053903;28;20123;-74
2022/06/08 03:59:16;;;;;;;13.43;11.40;;;9.60;99.90;;;;;;5055321;28;20708;-74
2022/06/08 04:01:42;;;;;;;13.30;10.25;;;9.60;99.90;;;;;;5055256;28;20048;-74
2022/06/08 04:04:08;;;;;;;13.13;11.05;;;9.70;99.90;;;;;;5055426;28;20040;-74
2022/06/08 04:06:34;;;;;;;11.18;9.75;;;9.70;99.90;;;;;;5038593;28;20513;-74
2022/06/08 04:08:59;;;;;;;12.13;10.77;;;9.70;99.90;;;;;;5055116;28;20328;-73
2022/06/08 04:11:25;;;;;;;14.07;10.25;;;9.80;99.90;;;;;;5055095;28;20041;-73
2022/06/08 04:13:50;;;;;;;14.10;11.63;;;9.80;99.90;;;;;;5055024;28;20036;-73
2022/06/08 04:16:16;;;;;;;14.45;12.10;;;9.90;99.90;;;;;;5073013;28;20488;-73
2022/06/08 04:18:42;;;;;;;20.48;15.30;;;10.00;99.90;;;;;;5054668;28;20050;-73
2022/06/08 04:21:10;;;;;;;17.27;14.68;;;10.20;99.90;;;;;;5055154;28;20127;-73
2022/06/08 04:23:36;;;;;;;17.67;14.50;;;10.40;99.90;;;;;;5054575;28;20052;-73
2022/06/08 04:26:03;;;;;;;18.55;14.95;;;10.50;99.90;;;;;;5054956;28;20044;-74
2022/06/08 04:28:30;;;;;;;19.90;15.90;;;10.70;99.90;;;;;;5054708;28;20037;-73
2022/06/08 04:30:56;;;;;;;19.48;15.63;;;10.90;99.90;;;;;;5054906;28;20389;-73
2022/06/08 04:33:22;;;;;;;22.95;18.00;;;11.20;99.90;;;;;;5054938;28;20045;-73
2022/06/08 04:35:48;;;;;;;26.80;18.85;;;11.40;99.90;;;;;;5037592;28;20029;-74
2022/06/08 04:38:14;;;;;;;21.77;17.95;;;11.60;99.90;;;;;;5054954;28;20093;-73
2022/06/08 04:40:40;;;;;;;19.85;16.85;;;11.80;99.90;;;;;;5054364;28;20036;-73
2022/06/08 04:43:06;;;;;;;20.25;16.77;;;11.90;99.90;;;;;;5054550;28;20052;-73
2022/06/08 04:45:35;;;;;;;20.50;17.05;;;12.00;99.90;;;;;;5054233;28;20123;-74
2022/06/08 04:48:01;;;;;;;18.73;16.73;;;12.10;99.90;;;;;;5054464;28;20374;-73
2022/06/08 04:50:27;;;;;;;19.45;17.20;;;12.10;99.90;;;;;;5054298;28;20098;-73
2022/06/08 04:52:53;;;;;;;20.50;16.95;;;12.20;99.90;;;;;;5054261;28;20071;-74
2022/06/08 04:55:19;;;;;;;19.48;16.70;;;12.20;99.90;;;;;;5072313;28;20398;-74
2022/06/08 04:57:44;;;;;;;20.33;16.73;;;12.20;99.90;;;;;;5054152;28;20052;-73
2022/06/08 05:00:14;;;;;;;20.65;18.45;;;12.30;99.90;;;;;;5053824;28;20044;-73
2022/06/08 05:02:43;;;;;;;20.23;17.27;;;12.30;99.90;;;;;;5054113;28;20041;-73
2022/06/08 05:05:19;;;;;;;23.17;19.10;;;12.40;99.90;;;;;;5037624;28;20111;-74
2022/06/08 05:07:44;;;;;;;22.60;19.20;;;12.40;99.90;;;;;;5053671;28;20123;-73
2022/06/08 05:10:10;;;;;;;22.38;18.88;;;12.50;99.90;;;;;;5053876;28;20136;-73
2022/06/08 05:12:36;;;;;;;24.75;20.67;;;12.60;99.90;;;;;;5054378;28;20059;-73
2022/06/08 05:15:08;;;;;;;24.25;18.52;;;12.70;99.90;;;;;;5053853;28;20036;-74
2022/06/08 05:17:34;;;;;;;22.83;19.95;;;12.80;99.90;;;;;;5054178;28;20694;-73
2022/06/08 05:20:00;;;;;;;23.80;17.95;;;12.80;99.90;;;;;;5053608;28;20044;-73
2022/06/08 05:22:26;;;;;;;20.75;17.83;;;12.90;99.90;;;;;;5053715;28;20040;-73
2022/06/08 05:24:51;;;;;;;22.25;19.80;;;12.90;99.90;;;;;;5050311;28;20065;-73
2022/06/08 05:27:17;;;;;;;23.13;19.13;;;13.00;99.90;;;;;;5050624;28;20048;-73
2022/06/08 05:29:44;;;;;;;21.00;18.17;;;13.00;99.90;;;;;;5050278;28;20048;-72
2022/06/08 05:32:09;;;;;;;24.95;19.30;;;13.00;99.90;;;;;;5050472;28;20479;-73
2022/06/08 05:34:35;;;;;;;23.58;20.70;;;13.10;99.90;;;;;;5050276;28;20075;-74
2022/06/08 05:37:01;;;;;;;23.20;19.92;;;13.10;99.90;;;;;;5050465;28;20075;-73
2022/06/08 05:39:27;;;;;;;25.45;21.23;;;13.20;99.90;;;;;;5033447;28;20052;-73
2022/06/08 05:41:55;;;;;;;23.75;20.52;;;13.30;99.90;;;;;;5033594;28;20037;-73
2022/06/08 05:44:21;;;;;;;24.90;20.80;;;13.30;99.90;;;;;;5050247;28;20091;-73
2022/06/08 05:46:48;;;;;;;24.83;20.20;;;13.40;99.90;;;;;;5049920;28;20044;-73
2022/06/08 05:49:15;;;;;;;23.05;20.65;;;13.50;99.90;;;;;;5050076;28;20052;-73
2022/06/08 05:51:40;;;;;;;25.88;21.13;;;13.60;99.90;;;;;;5050229;28;20139;-73
2022/06/08 05:54:06;;;;;;;24.95;21.17;;;13.80;99.90;;;;;;5050391;28;20041;-73
2022/06/08 05:56:32;;;;;;;23.25;20.77;;;14.00;99.90;;;;;;5049872;28;20124;-73
2022/06/08 05:58:57;;;;;;;22.67;20.25;;;14.20;99.90;;;;;;5049699;28;20037;-73
2022/06/08 06:01:23;;;;;;;23.70;20.98;;;14.40;99.90;;;;;;5049786;28;20052;-73
2022/06/08 06:03:51;;;;;;;23.35;20.30;;;14.60;99.90;;;;;;5049862;28;20036;-74
2022/06/08 06:06:16;;;;;;;22.20;19.85;;;14.70;99.90;;;;;;5049478;28;20475;-74
2022/06/08 06:08:44;;;;;;;24.05;21.20;;;14.80;99.90;;;;;;5049720;28;20049;-74
2022/06/08 06:11:10;;;;;;;22.88;20.20;;;15.00;99.90;;;;;;5032837;28;20041;-74
2022/06/08 06:13:36;;;;;;;23.08;19.90;;;15.00;99.90;;;;;;5032850;28;20052;-73
2022/06/08 06:16:02;;;;;;;22.95;19.65;;;15.00;99.90;;;;;;5049644;28;20044;-73
2022/06/08 06:18:27;;;;;;;21.55;18.80;;;15.10;99.90;;;;;;5048587;28;20083;-73
2022/06/08 06:20:54;;;;;;;20.08;17.85;;;15.30;99.90;;;;;;5032956;28;20036;-73
2022/06/08 06:23:19;;;;;;;20.45;17.90;;;15.70;99.90;;;;;;5049100;28;20061;-74
2022/06/08 06:25:45;;;;;;;20.63;18.48;;;16.70;99.90;;;;;;5049235;28;20055;-73
2022/06/08 06:28:10;;;;;;;18.02;16.27;;;17.20;99.90;;;;;;5049508;28;20048;-74
2022/06/08 06:30:36;;;;;;;18.98;17.10;;;17.50;99.90;;;;;;5049140;28;20048;-74
2022/06/08 06:33:02;;;;;;;17.55;15.85;;;18.10;99.90;;;;;;5049156;28;20120;-73
2022/06/08 06:35:30;;;;;;;16.13;14.50;;;19.10;99.90;;;;;;5049126;28;20041;-73
2022/06/08 06:37:56;;;;;;;15.38;13.48;;;19.70;99.90;;;;;;5049307;28;20374;-73
2022/06/08 06:40:22;;;;;;;15.88;14.18;;;20.10;99.90;;;;;;5048897;28;20041;-74
2022/06/08 06:42:48;;;;;;;15.18;13.63;;;20.80;99.90;;;;;;5032436;28;20537;-73
2022/06/08 06:45:15;;;;;;;14.68;13.25;;;21.40;99.90;;;;;;5032465;28;20044;-74
2022/06/08 06:47:41;;;;;;;13.80;12.40;;;22.30;99.90;;;;;;5032413;28;20087;-74
2022/06/08 06:50:10;;;;;;;18.95;12.65;;;23.20;99.90;;;;;;5032649;28;20470;-74
2022/06/08 06:52:35;;;;;;;13.18;11.77;;;23.10;99.90;;;;;;5048999;28;20102;-73
2022/06/08 06:55:01;;;;;;;12.52;11.32;;;22.70;99.90;;;;;;5048927;28;20534;-73
2022/06/08 06:57:27;;;;;;;12.82;11.45;;;23.00;99.90;;;;;;5050100;28;20033;-74
2022/06/08 06:59:52;;;;;;;12.07;10.90;;;23.40;99.90;;;;;;5048804;28;20491;-74
2022/06/08 07:02:20;;;;;;;12.15;10.95;;;24.10;99.90;;;;;;5048639;28;20391;-74
2022/06/08 07:04:47;;;;;;;12.63;11.45;;;;;;;;;;5048845;28;20556;-74
2022/06/08 07:07:13;;;;;;;11.05;10.05;;;23.90;99.90;;;;;;5048768;28;20398;-74
2022/06/08 07:09:40;;;;;;;10.70;9.45;;;24.20;99.90;;;;;;5049070;28;20128;-74
2022/06/08 07:12:06;;;;;;;11.52;10.35;;;24.50;99.90;;;;;;5048661;28;20047;-74
2022/06/08 07:14:33;;;;;;;10.35;9.35;;;;;;;;;;5048766;28;20123;-74
2022/06/08 07:16:59;;;;;;;9.23;8.38;;;25.40;98.30;;;;;;5031960;28;20094;-74
2022/06/08 07:19:25;;;;;;;9.13;8.30;;;25.80;98.70;;;;;;5048574;28;20094;-74
2022/06/08 07:21:50;;;;;;;8.88;8.10;;;25.80;98.90;;;;;;5048747;28;20040;-74
2022/06/08 07:24:22;;;;;;;8.43;7.63;;;26.00;97.70;;;;;;5048469;28;20053;-74
2022/06/08 07:26:48;;;;;;;7.78;7.07;;;26.30;97.00;;;;;;5048820;28;20059;-74
2022/06/08 07:29:14;;;;;;;8.52;7.13;;;26.70;97.80;;;;;;5048476;28;20041;-74
2022/06/08 07:31:40;;;;;;;7.13;6.28;;;26.80;96.70;;;;;;5052705;28;20128;-74
2022/06/08 07:34:06;;;;;;;5.63;5.07;;;26.60;95.30;;;;;;5052630;28;20546;-74
2022/06/08 07:36:32;;;;;;;5.47;4.97;;;26.60;96.10;;;;;;5052721;28;20048;-74
2022/06/08 07:38:58;;;;;;;5.20;4.70;;;26.40;95.40;;;;;;5052337;28;20076;-74
2022/06/08 07:41:24;;;;;;;5.40;4.75;;;25.60;95.30;;;;;;5052594;28;20049;-74
2022/06/08 07:43:49;;;;;;;5.35;4.85;;;25.20;95.90;;;;;;5052295;28;20505;-74
2022/06/08 07:46:15;;;;;;;5.43;4.68;;;25.00;97.40;;;;;;5052406;28;20040;-74
2022/06/08 07:51:25;;;;;;;4.82;4.30;;;24.50;98.70;;;;;;5052193;28;20045;-74
2022/06/08 07:53:50;;;;;;;4.95;4.53;;;24.10;99.70;;;;;;5052025;28;20094;-73
2022/06/08 07:56:16;;;;;;;4.57;4.13;;;23.50;98.20;;;;;;5051995;28;20087;-74
2022/06/08 07:58:42;;;;;;;4.45;4.05;;;23.40;98.20;;;;;;5035285;28;20044;-74
2022/06/08 08:01:07;;;;;;;5.60;4.30;;;23.30;98.10;;;;;;5052243;28;20029;-74
2022/06/08 08:03:33;;;;;;;5.18;4.65;;;23.30;99.90;;;;;;5051799;28;20106;-74
2022/06/08 08:05:59;;;;;;;5.47;4.25;;;23.10;99.70;;;;;;5051915;28;20036;-73
2022/06/08 08:08:25;;;;;;;3.78;3.47;;;23.40;99.40;;;;;;5051712;28;20052;-74
2022/06/08 08:10:50;;;;;;;4.20;3.20;;;23.30;99.30;;;;;;5051888;28;20041;-73
2022/06/08 08:13:16;;;;;;;3.72;3.42;;;23.00;99.80;;;;;;5051604;28;20450;-74
2022/06/08 08:15:43;;;;;;;4.13;3.10;;;22.80;99.10;;;;;;5052067;28;20053;-74
2022/06/08 08:18:09;;;;;;;3.85;3.25;;;22.60;99.90;;;;;;5051597;28;20045;-73
2022/06/08 08:20:35;;;;;;;3.35;3.05;;;22.40;99.90;;;;;;5035016;28;20129;-73
2022/06/08 08:23:02;;;;;;;3.28;2.97;;;22.30;99.90;;;;;;5053974;28;20467;-73
2022/06/08 08:25:28;;;;;;;4.97;2.60;;;22.20;99.90;;;;;;5071876;28;20468;-74
2022/06/08 08:27:54;;;;;;;3.22;2.50;;;22.10;99.90;;;;;;5054951;28;20064;-74
2022/06/08 08:30:23;;;;;;;3.25;2.65;;;22.00;99.90;;;;;;5054785;28;20127;-74
2022/06/08 08:32:49;;;;;;;3.10;2.60;;;21.90;99.90;;;;;;5054611;28;20056;-74
2022/06/08 08:35:16;;;;;;;2.25;2.05;;;21.80;99.90;;;;;;5054646;28;20040;-73
2022/06/08 08:37:43;;;;;;;2.55;2.35;;;21.70;99.90;;;;;;5070260;22;20044;-73
2022/06/08 08:40:44;;;;;;;3.33;2.67;;;21.80;99.90;;;;;;5033803;28;20056;-72
2022/06/08 08:43:14;;;;;;;2.83;2.58;;;21.70;99.90;;;;;;5033792;28;20401;-72
2022/06/08 08:45:53;;;;;;;2.30;1.90;;;21.80;99.90;;;;;;5035070;28;20041;-72
2022/06/08 08:48:31;;;;;;;2.20;1.60;;;21.70;99.90;;;;;;5018150;28;20045;-72
2022/06/08 08:51:21;;;;;;;2.63;1.40;;;21.60;99.90;;;;;;5034671;28;20124;-72
2022/06/08 08:54:17;;;;;;;3.00;2.20;;;21.50;99.90;;;;;;5034500;28;20052;-73
2022/06/08 08:56:43;;;;;;;2.28;1.80;;;21.50;99.90;;;;;;5017725;28;20072;-73
2022/06/08 08:59:14;;;;;;;3.08;1.60;;;21.70;99.90;;;;;;5034185;28;20072;-72
2022/06/08 09:01:41;;;;;;;;;;;21.90;99.90;;;;;;5018442;28;20063;-72
2022/06/08 09:04:17;;;;;;;1.70;1.60;;;21.90;99.90;;;;;;5017587;28;19928;-73
2022/06/08 09:06:43;;;;;;;1.88;1.70;;;21.80;99.90;;;;;;5034260;28;20595;-72
2022/06/08 09:09:21;;;;;;;2.72;1.90;;;21.80;99.90;;;;;;5034098;28;20045;-73
2022/06/08 09:11:47;;;;;;;3.33;2.55;;;21.90;99.90;;;;;;5034248;28;20495;-72
2022/06/08 09:14:16;;;;;;;2.72;2.17;;;21.80;99.90;;;;;;5033934;28;20048;-72
2022/06/08 09:16:45;;;;;;;5.10;2.88;;;21.80;99.90;;;;;;5017666;28;20485;-72
2022/06/08 09:19:26;;;;;;;2.47;2.25;;;21.90;99.90;;;;;;5033723;28;20049;-73
2022/06/08 09:22:16;;;;;;;3.90;2.30;;;22.00;99.90;;;;;;5033789;28;20071;-73
2022/06/08 09:24:55;;;;;;;3.35;2.40;;;22.20;99.90;;;;;;5033444;28;20068;-72
2022/06/08 09:27:38;;;;;;;3.10;2.80;;;22.30;99.90;;;;;;5034238;28;20044;-72
2022/06/08 09:30:07;;;;;;;5.10;3.13;;;22.30;99.90;;;;;;5033653;28;20086;-72
2022/06/08 09:32:49;;;;;;;4.82;3.10;;;22.30;99.90;;;;;;5033700;28;20190;-72
2022/06/08 09:35:26;;;;;;;3.55;3.13;;;22.50;99.90;;;;;;5033479;28;20053;-74
2022/06/08 09:38:02;;;;;;;5.57;3.70;;;22.70;99.90;;;;;;5033485;28;20048;-72
2022/06/08 09:40:44;;;;;;;4.20;3.80;;;22.70;99.90;;;;;;5033360;28;20044;-73
2022/06/08 09:43:30;;;;;;;3.72;3.28;;;22.90;99.90;;;;;;5033468;28;20083;-73
2022/06/08 09:46:21;;;;;;;5.82;3.55;;;23.10;99.90;;;;;;5017023;28;20040;-73
2022/06/08 09:52:01;;;;;;;7.05;3.70;;;23.20;99.90;;;;;;5033170;28;20041;-73
2022/06/08 09:55:08;;;;;;;3.13;2.83;;;23.20;99.90;;;;;;5033409;28;20052;-73
2022/06/08 09:57:49;;;;;;;4.53;3.88;;;23.20;99.90;;;;;;5033476;28;20068;-73
2022/06/08 10:00:40;;;;;;;3.90;3.60;;;23.10;99.70;;;;;;5033083;28;20037;-73
2022/06/08 10:03:29;;;;;;;3.35;2.65;;;22.90;99.90;;;;;;4986285;28;20091;-73
2022/06/08 10:06:26;;;;;;;5.13;3.70;;;22.80;99.90;;;;;;5032997;28;20080;-73
2022/06/08 10:09:02;;;;;;;4.80;3.65;;;22.80;99.90;;;;;;5032553;28;20126;-73
2022/06/08 10:11:44;;;;;;;4.97;3.90;;;22.70;99.90;;;;;;5033229;28;20425;-73
2022/06/08 10:14:21;;;;;;;4.50;3.90;;;22.60;99.90;;;;;;5033245;28;20037;-73
2022/06/08 10:16:58;;;;;;;5.93;4.05;;;22.40;99.90;;;;;;5033069;28;20508;-72
2022/06/08 10:19:34;;;;;;;4.15;3.45;;;22.50;99.90;;;;;;5016356;28;20053;-72
2022/06/08 10:22:02;;;;;;;4.45;4.05;;;22.50;99.90;;;;;;5032935;28;20530;-73
2022/06/08 10:24:35;;;;;;;4.55;4.15;;;22.60;99.90;;;;;;5033141;28;20033;-73
2022/06/08 10:27:12;;;;;;;4.43;4.03;;;22.70;99.90;;;;;;5032808;28;20053;-73
2022/06/08 10:29:49;;;;;;;4.57;4.18;;;22.90;99.90;;;;;;5016675;28;20130;-73
2022/06/08 10:32:24;;;;;;;4.88;3.75;;;23.00;99.90;;;;;;5032980;28;20383;-73
2022/06/08 10:34:56;;;;;;;4.53;4.10;;;23.10;99.90;;;;;;5032466;28;20041;-73
2022/06/08 10:37:36;;;;;;;6.18;4.18;;;23.10;99.90;;;;;;5032561;28;20123;-73
2022/06/08 10:40:08;;;;;;;4.50;3.55;;;23.00;99.90;;;;;;5032297;28;20503;-73
2022/06/08 10:42:40;;;;;;;5.00;3.70;;;23.00;99.90;;;;;;5016429;28;20041;-73
2022/06/08 10:45:23;;;;;;;;;;;23.00;99.90;;;;;;5032745;28;20041;-74
2022/06/08 10:48:03;;;;;;;4.07;3.10;;;23.10;99.90;;;;;;5032374;28;19932;-73
2022/06/08 10:50:32;;;;;;;3.67;3.00;;;23.20;99.90;;;;;;5032904;28;20052;-73
2022/06/08 10:56:22;;;;;;;2.42;1.90;;;23.20;99.90;;;;;;5032307;28;20514;-73
2022/06/08 10:59:03;;;;;;;4.05;1.88;;;23.10;99.90;;;;;;5032136;28;20051;-73
2022/06/08 11:01:48;;;;;;;3.38;2.50;;;22.90;99.90;;;;;;5032178;28;20049;-73
2022/06/08 11:04:48;;;;;;;3.00;2.40;;;22.70;99.90;;;;;;5032888;28;20098;-73
2022/06/08 11:07:19;;;;;;;3.25;2.50;;;22.70;99.90;;;;;;5019948;28;20060;-73
2022/06/08 11:09:44;;;;;;;4.10;2.60;;;22.70;99.90;;;;;;5038729;28;20055;-73
2022/06/08 11:12:13;;;;;;;2.60;2.40;;;22.80;99.90;;;;;;5022191;28;20132;-73
2022/06/08 11:14:47;;;;;;;3.45;2.50;;;22.90;99.90;;;;;;5039097;28;20056;-73
2022/06/08 11:17:37;;;;;;;3.50;2.28;;;22.90;99.90;;;;;;5038585;28;20045;-74
2022/06/08 11:20:13;;;;;;;2.83;2.45;;;22.90;99.90;;;;;;5022143;28;20048;-73
2022/06/08 11:22:44;;;;;;;3.75;2.80;;;22.90;99.90;;;;;;5038862;28;20074;-73
2022/06/08 11:25:21;;;;;;;3.45;3.15;;;23.00;99.90;;;;;;5038683;28;20041;-73
2022/06/08 11:28:27;;;;;;;3.53;3.20;;;23.00;99.90;;;;;;5038537;28;20047;-73
2022/06/08 11:30:56;;;;;;;7.18;3.10;;;23.00;99.90;;;;;;5038527;28;20043;-73
2022/06/08 11:33:22;;;;;;;3.22;2.88;;;23.00;99.90;;;;;;5038788;28;20087;-73
2022/06/08 11:36:39;;;;;;;3.42;2.33;;;23.10;99.90;;;;;;5038819;28;20092;-73
2022/06/08 11:39:27;;;;;;;3.00;2.15;;;23.20;99.90;;;;;;5012894;28;20052;-73
2022/06/08 11:42:10;;;;;;;2.70;2.30;;;23.20;99.90;;;;;;5038576;28;20433;-73
2022/06/08 11:44:43;;;;;;;3.92;3.00;;;23.20;99.90;;;;;;5038865;28;20041;-74
2022/06/08 11:47:15;;;;;;;5.43;3.10;;;23.10;99.90;;;;;;5038473;28;20037;-73
2022/06/08 11:49:54;;;;;;;5.03;3.40;;;23.00;99.90;;;;;;5038746;28;20072;-73
2022/06/08 11:52:28;;;;;;;6.65;3.35;;;23.00;99.90;;;;;;5038777;28;20435;-73
2022/06/08 11:55:02;;;;;;;4.50;3.28;;;23.10;99.90;;;;;;5021907;28;20041;-73
2022/06/08 11:57:29;;;;;;;3.65;3.20;;;23.10;99.90;;;;;;5021763;28;20045;-73
2022/06/08 11:59:57;;;;;;;4.40;2.90;;;23.00;99.90;;;;;;5038526;28;20044;-73
2022/06/08 12:02:26;;;;;;;3.88;3.08;;;23.00;99.90;;;;;;5038471;28;20099;-73
2022/06/08 12:04:57;;;;;;;4.50;3.35;;;22.80;99.90;;;;;;5022123;28;20486;-73
2022/06/08 12:07:36;;;;;;;4.35;3.10;;;22.80;99.90;;;;;;5038395;28;20065;-73
2022/06/08 12:10:04;;;;;;;4.22;2.80;;;22.50;99.90;;;;;;5021729;28;20052;-73
2022/06/08 12:12:30;;;;;;;4.45;3.47;;;22.40;99.90;;;;;;5021836;28;20051;-73
2022/06/08 12:14:56;;;;;;;5.90;3.42;;;22.10;99.90;;;;;;5038254;28;20037;-73
2022/06/08 12:17:33;;;;;;;4.10;3.03;;;21.80;99.90;;;;;;5034553;28;20059;-73
2022/06/08 12:19:58;;;;;;;4.57;1.70;;;21.60;99.90;;;;;;5035163;28;20083;-73
2022/06/08 12:22:33;;;;;;;5.18;1.45;;;21.10;99.90;;;;;;5018417;28;20065;-73
2022/06/08 12:25:05;;;;;;;4.43;1.50;;;20.80;99.90;;;;;;5035196;28;20029;-73
2022/06/08 12:27:40;;;;;;;3.17;1.15;;;20.50;99.90;;;;;;5034888;28;20041;-72
2022/06/08 12:30:32;;;;;;;4.15;1.33;;;20.00;99.90;;;;;;5034802;28;20045;-72
2022/06/08 12:33:18;;;;;;;6.63;1.83;;;19.60;99.90;;;;;;5034740;28;20044;-72
2022/06/08 12:36:06;;;;;;;5.15;1.50;;;19.30;99.90;;;;;;5034799;28;20052;-73
2022/06/08 12:38:34;;;;;;;5.75;1.27;;;19.00;99.90;;;;;;5034420;28;20057;-72
2022/06/08 12:41:02;;;;;;;4.47;1.88;;;18.90;99.90;;;;;;5052512;28;20049;-72
2022/06/08 12:43:48;;;;;;;2.30;1.30;;;18.80;99.90;;;;;;5034928;28;20041;-73
2022/06/08 12:46:23;;;;;;;4.10;1.45;;;18.80;99.90;;;;;;5034579;28;20094;-73
2022/06/08 12:49:01;;;;;;;3.85;1.50;;;18.80;99.90;;;;;;5052393;28;20052;-72
2022/06/08 12:51:41;;;;;;;2.65;1.30;;;18.70;99.90;;;;;;5034848;28;20032;-72
2022/06/08 12:54:13;;;;;;;4.25;1.40;;;18.60;99.90;;;;;;5034631;28;20033;-72
2022/06/08 12:56:40;;;;;;;3.95;1.90;;;18.50;99.90;;;;;;5017947;28;20055;-72
2022/06/08 12:59:06;;;;;;;3.70;1.58;;;18.30;99.90;;;;;;5034177;28;20040;-72
2022/06/08 13:01:32;;;;;;;2.90;1.42;;;18.10;99.90;;;;;;5034326;28;20049;-72
2022/06/08 13:03:57;;;;;;;4.22;1.63;;;18.00;99.90;;;;;;5017929;28;20398;-72
2022/06/08 13:06:26;;;;;;;6.78;1.88;;;17.90;99.90;;;;;;5017731;28;20044;-72
2022/06/08 13:08:52;;;;;;;4.22;1.80;;;17.80;99.90;;;;;;5034258;28;20041;-72
2022/06/08 13:11:21;;;;;;;5.82;2.10;;;17.80;99.90;;;;;;5034108;28;20037;-72
2022/06/08 13:13:48;;;;;;;3.10;1.75;;;17.80;99.90;;;;;;5034114;28;20733;-72
2022/06/08 13:16:17;;;;;;;5.55;2.13;;;17.80;99.90;;;;;;5034036;28;20041;-72
2022/06/08 13:18:43;;;;;;;3.67;1.60;;;17.90;99.90;;;;;;5034080;28;20045;-72
2022/06/08 13:21:11;;;;;;;4.45;2.17;;;17.90;99.90;;;;;;5033952;28;20505;-72